createdAt,value
2018-08-11T00:00:16.405Z,56.64
2018-08-11T00:02:43.356Z,56.89
2018-08-11T00:05:10.310Z,57.03
2018-08-11T00:07:37.261Z,57.05
2018-08-11T00:10:07.082Z,57.78
2018-08-11T00:12:36.082Z,58.61
2018-08-11T00:15:04.247Z,58.11
2018-08-11T00:17:31.276Z,58.30
2018-08-11T00:19:58.190Z,58.36
2018-08-11T00:22:25.190Z,58.85
2018-08-11T00:24:53.141Z,58.73
2018-08-11T00:27:20.106Z,57.92
2018-08-11T00:29:47.045Z,59.15
2018-08-11T00:32:13.967Z,58.84
2018-08-11T00:34:40.858Z,57.97
2018-08-11T00:37:08.862Z,58.56
2018-08-11T00:39:35.797Z,58.44
2018-08-11T00:42:02.756Z,59.10
2018-08-11T00:44:29.718Z,58.77
2018-08-11T00:46:56.665Z,58.23
2018-08-11T00:49:25.682Z,59.16
2018-08-11T00:51:53.672Z,59.30
2018-08-11T00:54:20.573Z,58.28
2018-08-11T00:56:47.466Z,59.25
2018-08-11T00:59:14.418Z,58.79
2018-08-11T01:01:41.383Z,59.75
2018-08-11T01:04:10.254Z,59.30
2018-08-11T01:06:37.133Z,59.73
2018-08-11T01:09:07.053Z,58.75
2018-08-11T01:11:34.102Z,59.59
2018-08-11T01:14:02.740Z,60.07
2018-08-11T01:16:29.670Z,59.96
2018-08-11T01:18:58.261Z,61.22
2018-08-11T01:21:25.229Z,60.12
2018-08-11T01:23:52.171Z,60.79
2018-08-11T01:26:19.173Z,60.74
2018-08-11T01:28:46.102Z,60.54
2018-08-11T01:31:13.056Z,59.17
2018-08-11T01:33:41.770Z,59.10
2018-08-11T01:36:08.683Z,58.50
2018-08-11T01:38:35.586Z,59.24
2018-08-11T01:41:02.538Z,59.71
2018-08-11T01:43:29.585Z,59.08
2018-08-11T01:45:56.506Z,58.83
2018-08-11T01:48:23.405Z,59.29
2018-08-11T01:50:50.354Z,58.94
2018-08-11T01:53:17.313Z,58.62
2018-08-11T01:55:44.790Z,58.48
2018-08-11T01:58:11.698Z,58.32
2018-08-11T02:00:38.617Z,58.51
2018-08-11T02:03:05.569Z,59.93
2018-08-11T02:05:34.261Z,60.51
2018-08-11T02:08:02.273Z,60.94
2018-08-11T02:10:29.162Z,59.63
2018-08-11T02:12:56.053Z,59.99
2018-08-11T02:15:23.006Z,60.74
2018-08-11T02:17:49.965Z,61.63
2018-08-11T02:20:18.348Z,61.02
2018-08-11T02:22:46.238Z,61.68
2018-08-11T02:25:13.241Z,62.20
2018-08-11T02:27:40.230Z,61.11
2018-08-11T02:30:11.102Z,62.21
2018-08-11T02:32:38.360Z,61.45
2018-08-11T02:35:05.928Z,62.55
2018-08-11T02:37:40.574Z,62.05
2018-08-11T02:40:09.197Z,61.70
2018-08-11T02:42:36.160Z,61.75
2018-08-11T02:45:03.554Z,61.94
2018-08-11T02:47:31.378Z,61.38
2018-08-11T02:49:58.334Z,62.91
2018-08-11T02:52:25.308Z,62.01
2018-08-11T02:54:52.823Z,62.37
2018-08-11T02:57:19.711Z,62.92
2018-08-11T02:59:46.669Z,61.82
2018-08-11T03:02:13.625Z,62.64
2018-08-11T03:04:41.315Z,62.88
2018-08-11T03:07:08.254Z,62.49
2018-08-11T03:09:35.217Z,62.44
2018-08-11T03:12:02.220Z,62.46
2018-08-11T03:14:30.159Z,62.14
2018-08-11T03:16:58.863Z,63.36
2018-08-11T03:19:25.822Z,62.84
2018-08-11T03:21:52.873Z,62.57
2018-08-11T03:24:20.334Z,62.92
2018-08-11T03:26:47.332Z,63.75
2018-08-11T03:29:14.279Z,62.96
2018-08-11T03:31:45.707Z,63.43
2018-08-11T03:34:13.327Z,63.73
2018-08-11T03:36:40.270Z,63.45
2018-08-11T03:39:08.777Z,63.96
2018-08-11T03:41:35.725Z,64.14
2018-08-11T03:44:02.672Z,63.46
2018-08-11T03:46:29.614Z,63.74
2018-08-11T03:48:57.362Z,63.09
2018-08-11T03:51:24.258Z,64.41
2018-08-11T03:53:51.222Z,65.16
2018-08-11T03:56:18.164Z,64.80
2018-08-11T03:58:46.165Z,64.22
2018-08-11T04:01:15.886Z,65.81
2018-08-11T04:03:43.333Z,65.05
2018-08-11T04:06:10.331Z,62.78
2018-08-11T04:08:37.249Z,63.36
2018-08-11T04:11:04.394Z,64.54
2018-08-11T04:13:31.884Z,65.08
2018-08-11T04:15:59.041Z,65.12
2018-08-11T04:18:26.010Z,64.94
2018-08-11T04:20:52.965Z,64.89
2018-08-11T04:23:19.942Z,65.35
2018-08-11T04:25:47.922Z,63.77
2018-08-11T04:28:14.865Z,63.88
2018-08-11T04:30:41.845Z,64.39
2018-08-11T04:33:08.789Z,64.86
2018-08-11T04:35:36.350Z,64.89
2018-08-11T04:38:03.369Z,64.38
2018-08-11T04:40:30.278Z,65.58
2018-08-11T04:42:57.250Z,64.92
2018-08-11T04:45:24.162Z,63.74
2018-08-11T04:47:55.274Z,64.36
2018-08-11T04:50:22.281Z,64.47
2018-08-11T04:52:49.251Z,63.84
2018-08-11T04:55:16.937Z,64.34
2018-08-11T04:57:43.894Z,64.10
2018-08-11T05:00:10.858Z,63.93
2018-08-11T05:02:37.805Z,63.77
2018-08-11T05:05:05.366Z,63.31
2018-08-11T05:07:32.325Z,64.37
2018-08-11T05:09:59.303Z,64.96
2018-08-11T05:12:26.251Z,63.48
2018-08-11T05:14:53.268Z,63.29
2018-08-11T05:17:20.165Z,63.14
2018-08-11T05:19:47.343Z,61.99
2018-08-11T05:22:14.278Z,61.74
2018-08-11T05:24:42.257Z,61.93
2018-08-11T05:27:09.174Z,62.32
2018-08-11T05:29:36.921Z,62.82
2018-08-11T05:32:05.779Z,62.23
2018-08-11T05:34:36.630Z,61.96
2018-08-11T05:37:08.417Z,61.14
2018-08-11T05:39:35.355Z,60.30
2018-08-11T05:42:02.311Z,58.97
2018-08-11T05:44:29.350Z,58.48
2018-08-11T05:46:56.254Z,58.56
2018-08-11T05:49:23.198Z,57.87
2018-08-11T05:51:50.179Z,58.46
2018-08-11T05:54:17.942Z,58.13
2018-08-11T05:56:45.406Z,58.52
2018-08-11T05:59:15.929Z,58.86
2018-08-11T06:01:42.886Z,58.51
2018-08-11T06:04:09.850Z,58.04
2018-08-11T06:06:37.429Z,59.23
2018-08-11T06:09:08.998Z,58.01
2018-08-11T06:11:38.729Z,57.59
2018-08-11T06:14:06.385Z,57.96
2018-08-11T06:16:35.014Z,57.06
2018-08-11T06:19:01.942Z,57.12
2018-08-11T06:21:28.905Z,57.81
2018-08-11T06:23:59.342Z,56.56
2018-08-11T06:26:26.347Z,55.25
2018-08-11T06:28:53.258Z,54.06
2018-08-11T06:31:21.376Z,53.51
2018-08-11T06:33:48.195Z,53.13
2018-08-11T06:36:15.379Z,52.86
2018-08-11T06:38:42.313Z,52.62
2018-08-11T06:41:09.274Z,54.82
2018-08-11T06:43:36.250Z,53.86
2018-08-11T06:46:03.909Z,52.69
2018-08-11T06:48:30.872Z,53.09
2018-08-11T06:50:58.446Z,52.62
2018-08-11T06:53:25.450Z,52.14
2018-08-11T06:55:52.356Z,50.38
2018-08-11T06:58:20.509Z,50.97
2018-08-11T07:00:47.407Z,51.24
2018-08-11T07:03:15.378Z,51.70
2018-08-11T07:05:42.333Z,51.39
2018-08-11T07:08:09.252Z,49.43
2018-08-11T07:10:36.169Z,48.42
2018-08-11T07:13:03.253Z,49.44
2018-08-11T07:15:30.190Z,49.14
2018-08-11T07:17:57.113Z,48.25
2018-08-11T07:20:24.037Z,46.89
2018-08-11T07:22:50.914Z,45.68
2018-08-11T07:25:17.881Z,45.96
2018-08-11T07:27:44.843Z,45.94
2018-08-11T07:30:11.941Z,45.71
2018-08-11T07:32:38.855Z,46.42
2018-08-11T07:35:05.813Z,48.29
2018-08-11T07:37:32.770Z,46.84
2018-08-11T07:39:59.742Z,46.21
2018-08-11T07:42:26.682Z,46.67
2018-08-11T07:44:53.638Z,45.84
2018-08-11T07:47:20.593Z,46.54
2018-08-11T07:49:47.611Z,45.64
2018-08-11T07:52:14.486Z,46.94
2018-08-11T07:54:41.406Z,46.55
2018-08-11T07:57:08.309Z,47.42
2018-08-11T07:59:35.284Z,46.56
2018-08-11T08:02:02.245Z,45.63
2018-08-11T08:04:30.026Z,45.40
2018-08-11T08:06:56.987Z,47.15
2018-08-11T08:09:23.952Z,47.78
2018-08-11T08:11:50.897Z,47.42
2018-08-11T08:14:17.814Z,47.21
2018-08-11T08:16:44.731Z,47.81
2018-08-11T08:19:11.661Z,48.31
2018-08-11T08:21:38.639Z,47.96
2018-08-11T08:24:06.498Z,46.46
2018-08-11T08:26:33.605Z,46.60
2018-08-11T08:29:00.427Z,46.68
2018-08-11T08:31:27.425Z,48.38
2018-08-11T08:33:54.454Z,47.38
2018-08-11T08:36:21.272Z,47.13
2018-08-11T08:38:48.233Z,47.84
2018-08-11T08:41:15.302Z,46.99
2018-08-11T08:43:42.261Z,46.40
2018-08-11T08:46:10.249Z,46.81
2018-08-11T08:48:37.166Z,47.69
2018-08-11T08:51:04.087Z,46.73
2018-08-11T08:53:31.013Z,46.24
2018-08-11T08:55:57.986Z,45.34
2018-08-11T08:58:24.915Z,44.81
2018-08-11T09:00:51.890Z,45.39
2018-08-11T09:03:18.886Z,46.17
2018-08-11T09:05:45.829Z,45.75
2018-08-11T09:08:12.787Z,44.08
2018-08-11T09:10:39.714Z,44.19
2018-08-11T09:13:06.700Z,44.50
2018-08-11T09:15:33.639Z,43.05
2018-08-11T09:18:00.591Z,44.12
2018-08-11T09:20:27.525Z,42.89
2018-08-11T09:22:54.424Z,42.36
2018-08-11T09:25:21.414Z,42.70
2018-08-11T09:27:48.326Z,44.72
2018-08-11T09:30:16.062Z,45.10
2018-08-11T09:32:42.954Z,45.01
2018-08-11T09:35:10.038Z,44.56
2018-08-11T09:37:36.975Z,44.64
2018-08-11T09:40:04.322Z,43.13
2018-08-11T09:42:31.262Z,44.02
2018-08-11T09:44:58.186Z,43.89
2018-08-11T09:47:25.112Z,43.93
2018-08-11T09:49:52.606Z,43.76
2018-08-11T09:52:19.521Z,44.90
2018-08-11T09:54:46.485Z,45.76
2018-08-11T09:57:14.056Z,44.50
2018-08-11T09:59:41.010Z,43.39
2018-08-11T10:02:13.810Z,42.88
2018-08-11T10:04:42.650Z,40.42
2018-08-11T10:07:09.570Z,40.03
2018-08-11T10:09:36.545Z,40.25
2018-08-11T10:12:03.505Z,40.44
2018-08-11T10:14:30.422Z,42.28
2018-08-11T10:16:57.294Z,43.11
2018-08-11T10:19:24.277Z,40.13
2018-08-11T10:21:51.234Z,39.38
2018-08-11T10:24:20.074Z,40.57
2018-08-11T10:26:47.596Z,41.25
2018-08-11T10:29:14.546Z,41.59
2018-08-11T10:31:41.470Z,40.13
2018-08-11T10:34:08.389Z,39.72
2018-08-11T10:36:36.159Z,38.96
2018-08-11T10:39:05.238Z,39.83
2018-08-11T10:41:32.215Z,39.45
2018-08-11T10:43:59.174Z,39.59
2018-08-11T10:46:26.250Z,38.16
2018-08-11T10:48:54.121Z,39.86
2018-08-11T10:51:21.236Z,39.63
2018-08-11T10:53:48.156Z,40.69
2018-08-11T10:56:15.074Z,40.45
2018-08-11T10:58:42.002Z,41.32
2018-08-11T11:01:08.907Z,42.86
2018-08-11T11:03:35.833Z,42.49
2018-08-11T11:06:02.848Z,40.59
2018-08-11T11:08:29.895Z,39.37
2018-08-11T11:10:57.649Z,41.24
2018-08-11T11:13:25.180Z,42.89
2018-08-11T11:15:54.133Z,43.04
2018-08-11T11:18:21.593Z,41.82
2018-08-11T11:20:48.577Z,40.37
2018-08-11T11:23:15.510Z,40.08
2018-08-11T11:25:42.456Z,39.20
2018-08-11T11:28:10.141Z,37.92
2018-08-11T11:30:37.109Z,37.91
2018-08-11T11:33:04.133Z,37.10
2018-08-11T11:35:31.097Z,36.95
2018-08-11T11:37:58.065Z,36.40
2018-08-11T11:40:25.070Z,36.86
2018-08-11T11:42:52.158Z,37.24
2018-08-11T11:45:19.194Z,36.65
2018-08-11T11:47:46.116Z,36.57
2018-08-11T11:50:13.057Z,36.71
2018-08-11T11:52:41.649Z,36.41
2018-08-11T11:55:08.605Z,35.43
2018-08-11T11:57:35.593Z,34.68
2018-08-11T12:00:02.631Z,35.44
2018-08-11T12:02:29.498Z,36.48
2018-08-11T12:04:56.450Z,36.91
2018-08-11T12:07:23.434Z,35.80
2018-08-11T12:09:50.415Z,35.63
2018-08-11T12:12:17.309Z,34.44
2018-08-11T12:14:44.253Z,36.37
2018-08-11T12:17:11.301Z,35.81
2018-08-11T12:19:39.120Z,38.68
2018-08-11T12:22:06.069Z,37.96
2018-08-11T12:24:33.070Z,37.81
2018-08-11T12:26:59.998Z,36.97
2018-08-11T12:29:26.971Z,36.74
2018-08-11T12:31:53.913Z,36.26
2018-08-11T12:34:20.897Z,36.13
2018-08-11T12:36:47.822Z,35.39
2018-08-11T12:39:14.782Z,34.78
2018-08-11T12:41:41.740Z,33.71
2018-08-11T12:44:09.213Z,32.53
2018-08-11T12:46:36.180Z,33.22
2018-08-11T12:49:03.643Z,33.24
2018-08-11T12:51:30.569Z,32.47
2018-08-11T12:53:57.598Z,34.20
2018-08-11T12:56:24.485Z,32.23
2018-08-11T12:58:51.477Z,32.22
2018-08-11T13:01:18.405Z,33.63
2018-08-11T13:03:45.365Z,33.54
2018-08-11T13:06:14.162Z,31.75
2018-08-11T13:08:41.119Z,32.87
2018-08-11T13:11:08.106Z,32.84
2018-08-11T13:13:35.106Z,31.80
2018-08-11T13:16:02.212Z,32.39
2018-08-11T13:18:29.149Z,32.50
2018-08-11T13:20:56.126Z,33.17
2018-08-11T13:23:23.062Z,33.11
2018-08-11T13:25:50.062Z,33.93
2018-08-11T13:28:17.037Z,33.85
2018-08-11T13:30:43.973Z,33.38
2018-08-11T13:33:10.921Z,32.84
2018-08-11T13:35:37.982Z,33.62
2018-08-11T13:38:05.758Z,34.24
2018-08-11T13:40:32.719Z,34.73
2018-08-11T13:42:59.633Z,32.77
2018-08-11T13:45:26.639Z,31.46
2018-08-11T13:47:53.618Z,32.42
2018-08-11T13:50:20.530Z,31.36
2018-08-11T13:52:47.613Z,31.35
2018-08-11T13:55:14.631Z,31.15
2018-08-11T13:57:42.722Z,30.85
2018-08-11T14:00:10.093Z,31.66
2018-08-11T14:02:37.114Z,31.95
2018-08-11T14:05:04.775Z,31.65
2018-08-11T14:07:31.815Z,30.94
2018-08-11T14:09:58.759Z,30.78
2018-08-11T14:12:26.770Z,28.93
2018-08-11T14:14:53.699Z,30.21
2018-08-11T14:17:20.646Z,31.43
2018-08-11T14:19:47.618Z,32.83
2018-08-11T14:22:15.598Z,33.41
2018-08-11T14:24:42.533Z,32.01
2018-08-11T14:27:09.477Z,32.03
2018-08-11T14:29:36.470Z,31.42
2018-08-11T14:32:03.501Z,32.49
2018-08-11T14:34:30.514Z,32.35
2018-08-11T14:36:57.429Z,32.02
2018-08-11T14:39:24.390Z,30.05
2018-08-11T14:41:51.346Z,30.38
2018-08-11T14:44:18.362Z,29.97
2018-08-11T14:46:45.322Z,31.28
2018-08-11T14:49:12.226Z,30.24
2018-08-11T14:51:39.195Z,31.00
2018-08-11T14:54:06.147Z,31.32
2018-08-11T14:56:33.109Z,29.69
2018-08-11T14:59:00.043Z,30.36
2018-08-11T15:01:27.004Z,30.64
2018-08-11T15:03:53.992Z,30.95
2018-08-11T15:06:21.531Z,30.78
2018-08-11T15:08:48.493Z,31.10
2018-08-11T15:11:16.306Z,30.54
2018-08-11T15:13:43.219Z,31.36
2018-08-11T15:16:10.210Z,30.09
2018-08-11T15:18:37.295Z,29.69
2018-08-11T15:21:04.235Z,30.59
2018-08-11T15:23:31.231Z,30.21
2018-08-11T15:25:58.113Z,30.22
2018-08-11T15:28:25.074Z,30.56
2018-08-11T15:30:52.051Z,29.72
2018-08-11T15:33:19.030Z,29.45
2018-08-11T15:35:46.770Z,29.27
2018-08-11T15:38:14.252Z,30.61
2018-08-11T15:40:41.194Z,30.95
2018-08-11T15:43:08.170Z,29.69
2018-08-11T15:45:35.106Z,29.55
2018-08-11T15:48:02.061Z,29.86
2018-08-11T15:50:29.042Z,29.56
2018-08-11T15:52:55.997Z,30.26
2018-08-11T15:55:22.942Z,30.52
2018-08-11T15:57:49.912Z,29.65
2018-08-11T16:00:17.862Z,29.49
2018-08-11T16:02:44.850Z,29.98
2018-08-11T16:05:11.806Z,30.57
2018-08-11T16:07:38.771Z,29.76
2018-08-11T16:10:06.337Z,30.63
2018-08-11T16:12:33.309Z,30.48
2018-08-11T16:15:00.282Z,31.16
2018-08-11T16:17:27.403Z,31.11
2018-08-11T16:19:54.354Z,31.34
2018-08-11T16:22:21.333Z,30.53
2018-08-11T16:24:49.330Z,31.43
2018-08-11T16:27:16.320Z,31.18
2018-08-11T16:29:43.218Z,31.73
2018-08-11T16:32:10.254Z,31.85
2018-08-11T16:34:37.190Z,31.34
2018-08-11T16:37:04.128Z,31.05
2018-08-11T16:39:31.119Z,31.44
2018-08-11T16:41:58.010Z,31.33
2018-08-11T16:44:25.006Z,30.45
2018-08-11T16:46:51.957Z,30.04
2018-08-11T16:49:18.885Z,31.71
2018-08-11T16:51:45.845Z,31.41
2018-08-11T16:54:12.786Z,30.95
2018-08-11T16:56:39.822Z,31.37
2018-08-11T16:59:06.859Z,32.13
2018-08-11T17:01:33.812Z,32.62
2018-08-11T17:04:01.777Z,33.55
2018-08-11T17:06:28.704Z,32.19
2018-08-11T17:08:56.701Z,32.40
2018-08-11T17:11:23.636Z,33.82
2018-08-11T17:13:50.598Z,33.03
2018-08-11T17:16:17.637Z,32.85
2018-08-11T17:18:45.503Z,32.60
2018-08-11T17:21:11.776Z,32.24
2018-08-11T17:23:38.806Z,32.79
2018-08-11T17:26:05.761Z,33.31
2018-08-11T17:28:32.696Z,34.14
2018-08-11T17:30:59.649Z,33.45
2018-08-11T17:33:26.592Z,34.13
2018-08-11T17:35:53.533Z,34.67
2018-08-11T17:38:20.478Z,34.46
2018-08-11T17:40:47.499Z,34.66
2018-08-11T17:43:14.385Z,34.47
2018-08-11T17:45:41.370Z,34.85
2018-08-11T17:48:08.394Z,34.53
2018-08-11T17:50:35.898Z,35.53
2018-08-11T17:53:03.366Z,34.79
2018-08-11T17:55:30.381Z,36.29
2018-08-11T17:57:57.385Z,36.53
2018-08-11T18:00:24.319Z,35.29
2018-08-11T18:02:51.890Z,36.07
2018-08-11T18:05:18.900Z,37.47
2018-08-11T18:07:45.785Z,36.41
2018-08-11T18:10:12.698Z,37.67
2018-08-11T18:12:39.653Z,37.46
2018-08-11T18:15:06.607Z,37.71
2018-08-11T18:17:33.657Z,39.00
2018-08-11T18:20:01.338Z,38.93
2018-08-11T18:22:28.266Z,38.97
2018-08-11T18:24:55.247Z,38.78
2018-08-11T18:27:22.194Z,38.16
2018-08-11T18:29:49.120Z,37.80
2018-08-11T18:32:16.831Z,39.43
2018-08-11T18:34:43.843Z,40.02
2018-08-11T18:37:10.726Z,39.91
2018-08-11T18:39:37.721Z,40.68
2018-08-11T18:42:04.673Z,40.86
2018-08-11T18:44:31.614Z,41.82
2018-08-11T18:46:58.566Z,41.49
2018-08-11T18:49:25.547Z,41.50
2018-08-11T18:51:52.561Z,42.22
2018-08-11T18:54:19.578Z,43.60
2018-08-11T18:56:46.505Z,43.31
2018-08-11T18:59:13.459Z,43.81
2018-08-11T19:01:41.433Z,44.76
2018-08-11T19:04:08.881Z,45.01
2018-08-11T19:06:35.846Z,44.61
2018-08-11T19:09:04.875Z,44.98
2018-08-11T19:11:31.847Z,45.03
2018-08-11T19:13:58.757Z,44.93
2018-08-11T19:16:25.642Z,45.49
2018-08-11T19:18:52.596Z,45.26
2018-08-11T19:21:19.545Z,45.78
2018-08-11T19:23:47.481Z,46.29
2018-08-11T19:26:14.357Z,45.64
2018-08-11T19:28:41.243Z,46.13
2018-08-11T19:31:08.203Z,46.00
2018-08-11T19:33:35.177Z,44.96
2018-08-11T19:36:02.352Z,45.05
2018-08-11T19:38:29.278Z,46.40
2018-08-11T19:40:56.318Z,45.39
2018-08-11T19:43:23.215Z,45.50
2018-08-11T19:45:51.178Z,45.28
2018-08-11T19:48:18.155Z,45.46
2018-08-11T19:50:45.090Z,44.95
2018-08-11T19:53:12.041Z,46.37
2018-08-11T19:55:39.021Z,46.98
2018-08-11T19:58:05.977Z,46.86
2018-08-11T20:00:33.013Z,47.62
2018-08-11T20:02:59.982Z,47.70
2018-08-11T20:05:26.971Z,47.84
2018-08-11T20:07:53.946Z,48.07
2018-08-11T20:10:20.859Z,48.19
2018-08-11T20:12:47.893Z,48.14
2018-08-11T20:15:14.768Z,48.02
2018-08-11T20:17:41.741Z,47.96
2018-08-11T20:20:09.713Z,48.17
2018-08-11T20:22:36.698Z,48.15
2018-08-11T20:25:04.789Z,48.14
2018-08-11T20:27:31.764Z,49.91
2018-08-11T20:29:58.673Z,49.81
2018-08-11T20:32:25.621Z,47.95
2018-08-11T20:34:52.578Z,50.79
2018-08-11T20:37:19.615Z,50.71
2018-08-11T20:39:46.525Z,50.32
2018-08-11T20:42:13.453Z,50.35
2018-08-11T20:44:40.465Z,51.60
2018-08-11T20:47:07.490Z,51.11
2018-08-11T20:49:34.462Z,50.98
2018-08-11T20:52:01.363Z,51.46
2018-08-11T20:54:28.263Z,51.37
2018-08-11T20:56:55.271Z,51.72
2018-08-11T20:59:22.173Z,52.34
2018-08-11T21:01:49.099Z,54.11
2018-08-11T21:04:16.053Z,52.81
2018-08-11T21:06:43.025Z,52.31
2018-08-11T21:09:11.623Z,53.19
2018-08-11T21:11:38.614Z,54.00
2018-08-11T21:14:05.953Z,53.85
2018-08-11T21:16:33.970Z,54.04
2018-08-11T21:19:01.971Z,54.41
2018-08-11T21:21:28.886Z,54.95
2018-08-11T21:23:55.866Z,54.74
2018-08-11T21:26:22.697Z,53.95
2018-08-11T21:28:49.656Z,54.37
2018-08-11T21:31:16.606Z,55.49
2018-08-11T21:33:43.754Z,55.29
2018-08-11T21:36:10.721Z,56.16
2018-08-11T21:38:37.702Z,56.53
2018-08-11T21:41:04.650Z,56.07
2018-08-11T21:43:31.607Z,55.83
2018-08-11T21:45:58.525Z,55.87
2018-08-11T21:48:26.022Z,56.33
2018-08-11T21:50:53.481Z,55.96
2018-08-11T21:53:20.458Z,56.83
2018-08-11T21:55:47.374Z,56.09
2018-08-11T21:58:14.249Z,57.55
2018-08-11T22:00:55.667Z,57.80
2018-08-11T22:03:22.628Z,58.52
2018-08-11T22:05:49.797Z,56.66
2018-08-11T22:08:16.729Z,56.43
2018-08-11T22:10:43.691Z,57.08
2018-08-11T22:13:11.494Z,56.70
2018-08-11T22:15:38.446Z,58.03
2018-08-11T22:18:05.355Z,57.06
2018-08-11T22:20:32.397Z,57.52
2018-08-11T22:22:59.289Z,57.76
2018-08-11T22:25:26.255Z,58.43
2018-08-11T22:27:53.201Z,59.35
2018-08-11T22:30:20.950Z,58.88
2018-08-11T22:32:47.866Z,59.07
2018-08-11T22:35:14.814Z,58.69
2018-08-11T22:37:41.770Z,59.60
2018-08-11T22:40:08.730Z,58.77
2018-08-11T22:42:36.481Z,58.49
2018-08-11T22:45:06.562Z,58.16
2018-08-11T22:47:34.029Z,58.04
2018-08-11T22:50:01.592Z,56.91
2018-08-11T22:52:28.515Z,57.76
2018-08-11T22:54:55.502Z,57.95
2018-08-11T22:57:22.425Z,58.34
2018-08-11T22:59:49.400Z,58.44
2018-08-11T23:02:17.085Z,57.31
2018-08-11T23:04:44.250Z,57.40
2018-08-11T23:07:11.243Z,58.49
2018-08-11T23:09:38.170Z,60.01
2018-08-11T23:12:06.543Z,59.71
2018-08-11T23:14:33.498Z,59.87
2018-08-11T23:17:01.110Z,60.50
2018-08-11T23:19:29.045Z,61.01
2018-08-11T23:21:57.049Z,60.94
2018-08-11T23:24:24.031Z,59.46
2018-08-11T23:26:50.977Z,60.14
2018-08-11T23:29:17.934Z,61.86
2018-08-11T23:31:44.843Z,60.71
2018-08-11T23:34:12.883Z,61.16
2018-08-11T23:36:39.769Z,60.29
2018-08-11T23:39:07.569Z,61.56
2018-08-11T23:41:34.633Z,62.62
2018-08-11T23:44:01.666Z,64.02
2018-08-11T23:46:28.518Z,64.76
2018-08-11T23:48:55.493Z,64.74
2018-08-11T23:51:22.470Z,64.23
2018-08-11T23:53:50.466Z,64.76
2018-08-11T23:56:17.369Z,63.49
